Погода Рыжанкина неделю

Витебская область, Белоруссия

24 - 30 мая
  • 24мая
    Сегодня
    +11°
    +24°
    Ясно и безоблачно
    ВремяПогодаТемператураВлажностьДавлениеВетер, м/сВероятность осадков
    00:00Облачно с прояснениями+16°C55 %752 мм4.5 м/с2 %
    03:00Небольшая облачность+14°C62 %753 мм3.8 м/с2 %
    06:00Ясно и безоблачно+12°C64 %754 мм4.0 м/с2 %
    09:00Ясно и безоблачно+17°C59 %754 мм4.3 м/с2 %
    12:00Ясно и безоблачно+21°C47 %755 мм4.5 м/с2 %
    15:00Ясно и безоблачно+23°C42 %754 мм4.3 м/с2 %
    18:00Ясно и безоблачно+23°C43 %753 мм4.0 м/с2 %
    21:00Ясно и безоблачно+18°C56 %754 мм3.0 м/с2 %
  • 25мая
    Суббота
    +12°
    +25°
    Практически безоблачно
    ВремяПогодаТемператураВлажностьДавлениеВетер, м/сВероятность осадков
    00:00Ясно и безоблачно+15°C59 %754 мм3.7 м/с2 %
    03:00Ясно и безоблачно+13°C63 %754 мм3.1 м/с2 %
    06:00Ясно и безоблачно+12°C68 %754 мм2.8 м/с2 %
    09:00Практически безоблачно+18°C59 %754 мм2.2 м/с2 %
    12:00Практически безоблачно+23°C45 %754 мм2.5 м/с2 %
    15:00Практически безоблачно+24°C41 %753 мм3.0 м/с2 %
    18:00Практически безоблачно+24°C42 %752 мм1.9 м/с2 %
    21:00Практически безоблачно+19°C64 %752 мм2.1 м/с2 %
  • 26мая
    Воскресенье
    +12°
    +25°
    Практически безоблачно
    ВремяПогодаТемператураВлажностьДавлениеВетер, м/сВероятность осадков
    00:00Практически безоблачно+16°C69 %752 мм2.9 м/с2 %
    03:00Ясно и безоблачно+14°C74 %752 мм2.2 м/с2 %
    06:00Практически безоблачно+14°C77 %752 мм1.5 м/с2 %
    09:00Практически безоблачно+19°C54 %752 мм1.4 м/с2 %
    12:00Практически безоблачно+23°C39 %753 мм0.8 м/с2 %
    15:00Практически безоблачно+25°C36 %752 мм1.4 м/с2 %
    18:00Практически безоблачно+25°C35 %751 мм1.5 м/с2 %
    21:00Ясно и безоблачно+19°C62 %751 мм1.6 м/с2 %
  • 27мая
    Понедельник
    +14°
    +26°
    Практически безоблачно
    ВремяПогодаТемператураВлажностьДавлениеВетер, м/сВероятность осадков
    00:00Ясно и безоблачно+15°C73 %751 мм2.6 м/с2 %
    03:00Ясно и безоблачно+15°C72 %751 мм2.0 м/с2 %
    06:00Ясно и безоблачно+14°C79 %752 мм1.5 м/с2 %
    09:00Ясно и безоблачно+20°C60 %752 мм1.1 м/с2 %
    12:00Практически безоблачно+24°C40 %752 мм2.4 м/с2 %
    15:00Практически безоблачно+26°C41 %751 мм2.0 м/с11 %
    18:00Практически безоблачно+25°C43 %751 мм1.2 м/с24 %
    21:00Практически безоблачно+21°C67 %751 мм2.4 м/с7 %
  • 28мая
    Вторник
    +13°
    +25°
    Небольшая облачность
    ВремяПогодаТемператураВлажностьДавлениеВетер, м/сВероятность осадков
    00:00Ясно и безоблачно+17°C88 %751 мм1.9 м/с2 %
    03:00Ясно и безоблачно+15°C90 %751 мм2.4 м/с2 %
    06:00Ясно и безоблачно+15°C88 %750 мм1.2 м/с2 %
    09:00Ясно и безоблачно+21°C64 %751 мм0.8 м/с2 %
    12:00Практически безоблачно+24°C44 %750 мм1.7 м/с8 %
    15:00Небольшая облачность+25°C44 %750 мм1.5 м/с21 %
    18:00Небольшая облачность+24°C51 %749 мм1.6 м/с29 %
    21:00Небольшая облачность+21°C71 %749 мм1.1 м/с11 %
Мы используем cookies
Соглашаюсь